WetterOnline ( https://www.wetteronline.de )

Wetter aktuell Lützow

Aktuelles Wetter: Schwerin (68m)

6-stündlich | Neueste Meldungen
Ortszeit Temperatur Wetter
Sa, 28.03. 19:00 7.0° C bewölkt
Sa, 28.03. 13:00 10.5° C wolkenlos
Sa, 28.03. 7:00 2.5° C wolkenlos
Sa, 28.03. 1:00 2.5° C wolkenlos
Fr, 27.03. 19:00 9.2° C wolkenlos
Fr, 27.03. 13:00 13.1° C wolkenlos
Fr, 27.03. 7:00 2.2° C wolkenlos
Fr, 27.03. 1:00 2.0° C wolkenlos
Ortszeit Temperatur Wetter
Sa, 28.03. 19:30 6.6° C bewölkt
Sa, 28.03. 19:20 6.6° C bewölkt
Sa, 28.03. 19:10 6.8° C bedeckt
Sa, 28.03. 19:00 7.0° C bewölkt
Sa, 28.03. 18:50 7.0° C bewölkt
Sa, 28.03. 18:40 7.0° C wolkig
Sa, 28.03. 18:30 7.3° C fast wolkenlos
Sa, 28.03. 18:00 8.1° C wolkenlos
Sa, 28.03. 17:30 8.7° C wolkenlos
Sa, 28.03. 17:00 9.2° C wolkenlos
Sa, 28.03. 16:30 10.4° C wolkenlos
Ortszeit Relative Feuchte Sichtweite
Sa, 28.03. 19:00 69% 23 km
Sa, 28.03. 13:00 41% 40 km
Sa, 28.03. 7:00 90% 5.0 km
Sa, 28.03. 1:00 91% 6 km
Fr, 27.03. 19:00 56% 30 km
Fr, 27.03. 13:00 37% 25 km
Fr, 27.03. 7:00 72% 24 km
Fr, 27.03. 1:00 75% 24 km
Ortszeit Relative Feuchte Sichtweite
Sa, 28.03. 19:30 70% 24 km
Sa, 28.03. 19:20 70% -
Sa, 28.03. 19:10 70% -
Sa, 28.03. 19:00 69% 23 km
Sa, 28.03. 18:50 69% -
Sa, 28.03. 18:40 69% -
Sa, 28.03. 18:30 67% 29 km
Sa, 28.03. 18:00 65% 29 km
Sa, 28.03. 17:30 63% 35 km
Sa, 28.03. 17:00 53% 27 km
Sa, 28.03. 16:30 46% 30 km
Ortszeit Niederschlagsmenge Niederschlagsart
Sa, 28.03. 19:00 0.0 l/m2 in 12 Std. -
Sa, 28.03. 13:00 0.0 l/m2 in 6 Std. -
Sa, 28.03. 7:00 0.0 l/m2 in 12 Std. -
Sa, 28.03. 1:00 0.0 l/m2 in 6 Std. -
Fr, 27.03. 19:00 0.0 l/m2 in 12 Std. -
Fr, 27.03. 13:00 0.0 l/m2 in 6 Std. -
Fr, 27.03. 7:00 0.0 l/m2 in 12 Std. -
Fr, 27.03. 1:00 0.0 l/m2 in 6 Std. -
Ortszeit Niederschlagsmenge Niederschlagsart
Sa, 28.03. 19:30 0.0 l/m2 in 1 Std. -
Sa, 28.03. 19:20 keine Meldung -
Sa, 28.03. 19:10 keine Meldung -
Sa, 28.03. 19:00 0.0 l/m2 in 1 Std. -
Sa, 28.03. 18:50 keine Meldung -
Sa, 28.03. 18:40 keine Meldung -
Sa, 28.03. 18:30 0.0 l/m2 in 1 Std. -
Sa, 28.03. 18:00 0.0 l/m2 in 1 Std. -
Sa, 28.03. 17:30 0.0 l/m2 in 1 Std. -
Sa, 28.03. 17:00 0.0 l/m2 in 1 Std. -
Sa, 28.03. 16:30 0.0 l/m2 in 1 Std. -
Ortszeit Stärke Spitze Richtung
km/h Bft. km/h Grad Sektor
Sa, 28.03. 19:00 9 2 31 350° N
Sa, 28.03. 13:00 17 3 28 360° N
Sa, 28.03. 7:00 7 2 25 360° N
Sa, 28.03. 1:00 9 2 24 350° N
Fr, 27.03. 19:00 14 3 32 40° NO
Fr, 27.03. 13:00 13 3 28 70° O
Fr, 27.03. 7:00 11 2 22 70° O
Fr, 27.03. 1:00 14 3 22 50° NO
Ortszeit Stärke Spitze Richtung
km/h Bft. km/h Grad Sektor
Sa, 28.03. 19:30 7 2 14 350° N
Sa, 28.03. 19:20 7 2 - 350° N
Sa, 28.03. 19:10 7 2 - 350° N
Sa, 28.03. 19:00 9 2 24 350° N
Sa, 28.03. 18:50 9 2 - 350° N
Sa, 28.03. 18:40 11 2 - 350° N
Sa, 28.03. 18:30 13 3 24 360° N
Sa, 28.03. 18:00 15 3 28 10° N
Sa, 28.03. 17:30 15 3 28 10° N
Sa, 28.03. 17:00 22 4 32 10° N
Sa, 28.03. 16:30 14 3 25 350° N
Ortszeit Untergrenze Bedeckung Gattung
total tief tief mittel hoch
Sa, 28.03. 19:00 1380 m 7/8 7/8 - - -
Sa, 28.03. 13:00 - 0/8 0/8 - - -
Sa, 28.03. 7:00 - 0/8 0/8 - - -
Sa, 28.03. 1:00 - 0/8 0/8 - - -
Fr, 27.03. 19:00 - 0/8 0/8 - - -
Fr, 27.03. 13:00 - 0/8 0/8 - - -
Fr, 27.03. 7:00 - 0/8 0/8 - - -
Fr, 27.03. 1:00 - 0/8 0/8 - - -
Ortszeit Bedeckungsgrad in Achtel und Wolkenuntergrenze
Sa, 28.03. 19:30 7(1500m)
Sa, 28.03. 19:20 7(1500m)
Sa, 28.03. 19:10 8(1500m)
Sa, 28.03. 19:00 5(1380m) 7(1500m)
Sa, 28.03. 18:50 5(1380m) 7(1500m)
Sa, 28.03. 18:40 4(1350m) 6(1500m)
Sa, 28.03. 18:30 1(1440m) 4(1500m)
Sa, 28.03. 18:00 keine Wolken
Sa, 28.03. 17:30 keine Wolken
Sa, 28.03. 17:00 keine Wolken
Sa, 28.03. 16:30 keine Wolken
Ortszeit Luftdruck NN (hPa) Tendenz (hPa in 3 Std.)
Sa, 28.03. 19:00 1020 0,0
Sa, 28.03. 13:00 1022 - 0,7
Sa, 28.03. 7:00 1023 - 0,2
Sa, 28.03. 1:00 1024 - 0,5
Fr, 27.03. 19:00 1024 + 0,3
Fr, 27.03. 13:00 1025 - 1,0
Fr, 27.03. 7:00 1026 - 0,3
Fr, 27.03. 1:00 1027 - 0,7
Ortszeit Luftdruck NN (hPa) Tendenz (hPa in 3 Std.)
Sa, 28.03. 19:30 1020 + 0,3
Sa, 28.03. 19:20 1020 keine Meldung
Sa, 28.03. 19:10 1020 keine Meldung
Sa, 28.03. 19:00 1020 0,0
Sa, 28.03. 18:50 1020 keine Meldung
Sa, 28.03. 18:40 1020 keine Meldung
Sa, 28.03. 18:30 1020 - 0,3
Sa, 28.03. 18:00 1020 - 0,8
Sa, 28.03. 17:30 1020 - 1,1
Sa, 28.03. 17:00 1020 - 1,4
Sa, 28.03. 16:30 1020 - 1,8
Ortszeit Schneehöhe (cm)
Sa, 28.03. 19:00 0
Sa, 28.03. 13:00 0
Sa, 28.03. 7:00 0
Sa, 28.03. 1:00 0
Fr, 27.03. 19:00 0
Fr, 27.03. 13:00 0
Fr, 27.03. 7:00 0
Fr, 27.03. 1:00 0
Ortszeit Schneehöhe (cm)
Sa, 28.03. 19:30 0
Sa, 28.03. 19:20 0
Sa, 28.03. 19:10 0
Sa, 28.03. 19:00 0
Sa, 28.03. 18:50 0
Sa, 28.03. 18:40 0
Sa, 28.03. 18:30 0
Sa, 28.03. 18:00 0
Sa, 28.03. 17:30 0
Sa, 28.03. 17:00 0
Sa, 28.03. 16:30 0
Link zu dieser Seite / Seite empfehlen

Das Wetter in ...